sensor_id;sensor_type;location;lat;lon;timestamp;pressure;altitude;pressure_sealevel;temperature;humidity
22335;BME280;11335;43.848;25.958;2022-08-06T00:01:33;100697.25;;;28.30;100.00
22335;BME280;11335;43.848;25.958;2022-08-06T00:04:20;100687.56;;;27.69;100.00
22335;BME280;11335;43.848;25.958;2022-08-06T00:07:06;100689.16;;;27.72;100.00
22335;BME280;11335;43.848;25.958;2022-08-06T00:09:52;100685.97;;;27.67;100.00
22335;BME280;11335;43.848;25.958;2022-08-06T00:12:38;100687.78;;;27.87;100.00
22335;BME280;11335;43.848;25.958;2022-08-06T00:15:24;100685.56;;;27.92;100.00
22335;BME280;11335;43.848;25.958;2022-08-06T00:18:09;100690.38;;;27.98;100.00
22335;BME280;11335;43.848;25.958;2022-08-06T00:20:55;100694.09;;;28.06;100.00
22335;BME280;11335;43.848;25.958;2022-08-06T00:23:41;100695.19;;;27.94;100.00
22335;BME280;11335;43.848;25.958;2022-08-06T00:26:27;100699.47;;;27.76;100.00
22335;BME280;11335;43.848;25.958;2022-08-06T00:29:14;100701.78;;;27.81;100.00
22335;BME280;11335;43.848;25.958;2022-08-06T00:31:59;100703.88;;;28.07;100.00
22335;BME280;11335;43.848;25.958;2022-08-06T00:34:45;100692.22;;;27.67;100.00
22335;BME280;11335;43.848;25.958;2022-08-06T00:37:31;100699.63;;;27.75;100.00
22335;BME280;11335;43.848;25.958;2022-08-06T00:40:18;100702.31;;;28.05;100.00
22335;BME280;11335;43.848;25.958;2022-08-06T00:43:05;100701.44;;;28.04;100.00
22335;BME280;11335;43.848;25.958;2022-08-06T00:45:51;100701.97;;;27.89;100.00
22335;BME280;11335;43.848;25.958;2022-08-06T00:48:37;100699.06;;;28.01;100.00
22335;BME280;11335;43.848;25.958;2022-08-06T00:51:23;100699.56;;;27.86;100.00
22335;BME280;11335;43.848;25.958;2022-08-06T00:54:09;100708.22;;;27.29;100.00
22335;BME280;11335;43.848;25.958;2022-08-06T00:56:55;100705.25;;;27.62;100.00
22335;BME280;11335;43.848;25.958;2022-08-06T00:59:41;100709.50;;;27.65;100.00
22335;BME280;11335;43.848;25.958;2022-08-06T01:02:27;100708.78;;;27.63;100.00
22335;BME280;11335;43.848;25.958;2022-08-06T01:05:13;100714.56;;;27.28;100.00
22335;BME280;11335;43.848;25.958;2022-08-06T01:07:58;100717.19;;;27.18;100.00
22335;BME280;11335;43.848;25.958;2022-08-06T01:10:44;100712.53;;;27.20;100.00
22335;BME280;11335;43.848;25.958;2022-08-06T01:13:30;100709.69;;;27.01;100.00
22335;BME280;11335;43.848;25.958;2022-08-06T01:16:26;100714.34;;;27.20;100.00
22335;BME280;11335;43.848;25.958;2022-08-06T01:19:36;100710.53;;;27.02;100.00
22335;BME280;11335;43.848;25.958;2022-08-06T01:28:35;100703.66;;;27.09;100.00
22335;BME280;11335;43.848;25.958;2022-08-06T01:31:31;100698.06;;;27.42;100.00
22335;BME280;11335;43.848;25.958;2022-08-06T01:34:50;100699.81;;;27.22;100.00
22335;BME280;11335;43.848;25.958;2022-08-06T01:37:53;100703.66;;;27.29;100.00
22335;BME280;11335;43.848;25.958;2022-08-06T01:40:42;100704.91;;;27.46;100.00
22335;BME280;11335;43.848;25.958;2022-08-06T01:43:31;100716.28;;;27.29;100.00
22335;BME280;11335;43.848;25.958;2022-08-06T01:46:17;100716.13;;;27.10;100.00
22335;BME280;11335;43.848;25.958;2022-08-06T01:49:04;100714.94;;;26.82;100.00
22335;BME280;11335;43.848;25.958;2022-08-06T01:51:54;100710.91;;;26.97;100.00
22335;BME280;11335;43.848;25.958;2022-08-06T01:54:44;100710.06;;;26.76;100.00
22335;BME280;11335;43.848;25.958;2022-08-06T01:57:33;100711.09;;;26.53;100.00
22335;BME280;11335;43.848;25.958;2022-08-06T02:00:20;100706.91;;;26.71;100.00
22335;BME280;11335;43.848;25.958;2022-08-06T02:03:10;100697.81;;;26.52;100.00
22335;BME280;11335;43.848;25.958;2022-08-06T02:06:00;100699.75;;;26.61;100.00
22335;BME280;11335;43.848;25.958;2022-08-06T02:08:49;100698.81;;;26.82;100.00
22335;BME280;11335;43.848;25.958;2022-08-06T02:11:37;100698.75;;;26.19;100.00
22335;BME280;11335;43.848;25.958;2022-08-06T02:14:25;100699.41;;;26.43;100.00
22335;BME280;11335;43.848;25.958;2022-08-06T02:17:15;100696.16;;;26.40;100.00
22335;BME280;11335;43.848;25.958;2022-08-06T02:20:04;100699.06;;;26.48;100.00
22335;BME280;11335;43.848;25.958;2022-08-06T02:22:51;100697.53;;;26.55;100.00
22335;BME280;11335;43.848;25.958;2022-08-06T02:25:40;100704.41;;;26.48;100.00
22335;BME280;11335;43.848;25.958;2022-08-06T02:28:27;100697.44;;;26.14;100.00
22335;BME280;11335;43.848;25.958;2022-08-06T02:31:15;100705.50;;;26.45;100.00
22335;BME280;11335;43.848;25.958;2022-08-06T02:34:01;100705.50;;;26.45;100.00
22335;BME280;11335;43.848;25.958;2022-08-06T02:36:55;100711.22;;;26.63;100.00
22335;BME280;11335;43.848;25.958;2022-08-06T02:39:50;100702.72;;;26.78;100.00
22335;BME280;11335;43.848;25.958;2022-08-06T02:43:16;100709.56;;;26.82;100.00
22335;BME280;11335;43.848;25.958;2022-08-06T02:48:53;100708.41;;;26.64;100.00
22335;BME280;11335;43.848;25.958;2022-08-06T02:51:45;100702.22;;;26.42;100.00
22335;BME280;11335;43.848;25.958;2022-08-06T02:54:43;100699.69;;;26.29;100.00
22335;BME280;11335;43.848;25.958;2022-08-06T02:57:37;100704.59;;;26.67;100.00
22335;BME280;11335;43.848;25.958;2022-08-06T03:00:24;100714.47;;;26.35;100.00
22335;BME280;11335;43.848;25.958;2022-08-06T03:03:13;100705.78;;;26.42;100.00
22335;BME280;11335;43.848;25.958;2022-08-06T03:06:01;100710.25;;;26.64;100.00
22335;BME280;11335;43.848;25.958;2022-08-06T03:08:51;100710.88;;;26.45;100.00
22335;BME280;11335;43.848;25.958;2022-08-06T03:11:39;100711.91;;;26.33;100.00
22335;BME280;11335;43.848;25.958;2022-08-06T03:14:26;100717.53;;;26.30;100.00
22335;BME280;11335;43.848;25.958;2022-08-06T03:17:13;100721.72;;;26.55;100.00
22335;BME280;11335;43.848;25.958;2022-08-06T03:20:02;100721.38;;;26.59;100.00
22335;BME280;11335;43.848;25.958;2022-08-06T03:22:50;100720.78;;;26.87;100.00
22335;BME280;11335;43.848;25.958;2022-08-06T03:25:39;100711.31;;;26.30;100.00
22335;BME280;11335;43.848;25.958;2022-08-06T03:28:25;100714.84;;;26.93;100.00
22335;BME280;11335;43.848;25.958;2022-08-06T03:31:12;100729.50;;;26.80;100.00
22335;BME280;11335;43.848;25.958;2022-08-06T03:33:58;100723.91;;;26.92;100.00
22335;BME280;11335;43.848;25.958;2022-08-06T03:36:45;100727.97;;;26.55;100.00
22335;BME280;11335;43.848;25.958;2022-08-06T03:39:32;100724.31;;;26.45;100.00
22335;BME280;11335;43.848;25.958;2022-08-06T03:42:19;100728.03;;;26.76;100.00
22335;BME280;11335;43.848;25.958;2022-08-06T03:45:06;100728.47;;;26.60;100.00
22335;BME280;11335;43.848;25.958;2022-08-06T03:47:54;100730.75;;;27.17;100.00
22335;BME280;11335;43.848;25.958;2022-08-06T03:50:42;100734.00;;;27.00;100.00
22335;BME280;11335;43.848;25.958;2022-08-06T03:53:31;100739.25;;;27.01;100.00
22335;BME280;11335;43.848;25.958;2022-08-06T03:56:23;100730.38;;;27.21;100.00
22335;BME280;11335;43.848;25.958;2022-08-06T03:59:11;100738.25;;;27.34;100.00
22335;BME280;11335;43.848;25.958;2022-08-06T04:02:00;100740.41;;;27.19;100.00
22335;BME280;11335;43.848;25.958;2022-08-06T04:04:47;100740.25;;;27.00;100.00
22335;BME280;11335;43.848;25.958;2022-08-06T04:07:33;100750.28;;;27.19;100.00
22335;BME280;11335;43.848;25.958;2022-08-06T04:10:21;100745.69;;;26.47;100.00
22335;BME280;11335;43.848;25.958;2022-08-06T04:13:19;100752.91;;;26.89;100.00
22335;BME280;11335;43.848;25.958;2022-08-06T04:16:06;100748.78;;;26.31;100.00
22335;BME280;11335;43.848;25.958;2022-08-06T04:18:53;100752.19;;;26.33;100.00
22335;BME280;11335;43.848;25.958;2022-08-06T04:21:41;100759.59;;;26.63;100.00
22335;BME280;11335;43.848;25.958;2022-08-06T04:24:26;100756.66;;;26.66;100.00
22335;BME280;11335;43.848;25.958;2022-08-06T04:27:13;100756.22;;;26.81;100.00
22335;BME280;11335;43.848;25.958;2022-08-06T04:30:00;100759.13;;;26.47;100.00
22335;BME280;11335;43.848;25.958;2022-08-06T04:32:46;100754.16;;;26.31;100.00
22335;BME280;11335;43.848;25.958;2022-08-06T04:35:32;100759.19;;;26.78;100.00
22335;BME280;11335;43.848;25.958;2022-08-06T04:38:21;100753.75;;;26.89;100.00
22335;BME280;11335;43.848;25.958;2022-08-06T04:41:07;100760.31;;;26.76;100.00
22335;BME280;11335;43.848;25.958;2022-08-06T04:43:53;100758.38;;;26.67;100.00
22335;BME280;11335;43.848;25.958;2022-08-06T04:46:40;100748.16;;;26.81;100.00
22335;BME280;11335;43.848;25.958;2022-08-06T04:49:27;100762.84;;;26.77;100.00
22335;BME280;11335;43.848;25.958;2022-08-06T04:52:26;100761.31;;;26.53;100.00
22335;BME280;11335;43.848;25.958;2022-08-06T04:55:12;100763.91;;;26.86;100.00
22335;BME280;11335;43.848;25.958;2022-08-06T04:57:57;100767.41;;;26.97;100.00
22335;BME280;11335;43.848;25.958;2022-08-06T05:00:47;100762.56;;;26.60;100.00
22335;BME280;11335;43.848;25.958;2022-08-06T05:03:33;100762.34;;;26.83;100.00
22335;BME280;11335;43.848;25.958;2022-08-06T05:09:16;100767.41;;;26.55;100.00
22335;BME280;11335;43.848;25.958;2022-08-06T05:12:05;100763.91;;;26.86;100.00
22335;BME280;11335;43.848;25.958;2022-08-06T05:18:06;100756.91;;;27.26;100.00
22335;BME280;11335;43.848;25.958;2022-08-06T05:20:55;100757.66;;;27.37;100.00
22335;BME280;11335;43.848;25.958;2022-08-06T05:23:46;100752.28;;;27.37;100.00
22335;BME280;11335;43.848;25.958;2022-08-06T05:26:34;100754.22;;;27.47;100.00
22335;BME280;11335;43.848;25.958;2022-08-06T05:29:20;100764.41;;;27.11;100.00
22335;BME280;11335;43.848;25.958;2022-08-06T05:32:07;100760.84;;;27.22;100.00
22335;BME280;11335;43.848;25.958;2022-08-06T05:34:52;100766.78;;;27.25;100.00
22335;BME280;11335;43.848;25.958;2022-08-06T05:37:38;100756.41;;;27.92;100.00
22335;BME280;11335;43.848;25.958;2022-08-06T05:40:24;100762.16;;;28.08;100.00
22335;BME280;11335;43.848;25.958;2022-08-06T05:43:10;100764.31;;;28.14;100.00
22335;BME280;11335;43.848;25.958;2022-08-06T05:45:59;100772.25;;;28.65;100.00
22335;BME280;11335;43.848;25.958;2022-08-06T05:49:00;100759.03;;;28.03;100.00
22335;BME280;11335;43.848;25.958;2022-08-06T05:52:15;100768.34;;;28.39;100.00
22335;BME280;11335;43.848;25.958;2022-08-06T05:55:11;100767.69;;;28.46;100.00
22335;BME280;11335;43.848;25.958;2022-08-06T05:58:02;100760.91;;;28.80;100.00
22335;BME280;11335;43.848;25.958;2022-08-06T06:00:51;100756.78;;;28.95;100.00
22335;BME280;11335;43.848;25.958;2022-08-06T06:03:38;100762.50;;;29.21;100.00
22335;BME280;11335;43.848;25.958;2022-08-06T06:06:24;100757.22;;;29.19;100.00
22335;BME280;11335;43.848;25.958;2022-08-06T06:09:11;100762.88;;;29.35;100.00
22335;BME280;11335;43.848;25.958;2022-08-06T06:11:59;100763.59;;;29.93;99.89
22335;BME280;11335;43.848;25.958;2022-08-06T06:14:46;100757.16;;;30.03;99.31
22335;BME280;11335;43.848;25.958;2022-08-06T06:17:58;100761.16;;;29.99;100.00
22335;BME280;11335;43.848;25.958;2022-08-06T06:27:03;100769.22;;;29.72;100.00
22335;BME280;11335;43.848;25.958;2022-08-06T06:30:04;100761.41;;;29.50;100.00
22335;BME280;11335;43.848;25.958;2022-08-06T06:35:57;100749.81;;;29.86;100.00
22335;BME280;11335;43.848;25.958;2022-08-06T06:39:03;100760.66;;;30.40;100.00
22335;BME280;11335;43.848;25.958;2022-08-06T06:41:57;100755.97;;;30.15;100.00
22335;BME280;11335;43.848;25.958;2022-08-06T06:48:13;100750.19;;;30.01;100.00
22335;BME280;11335;43.848;25.958;2022-08-06T06:51:10;100751.53;;;29.87;100.00
22335;BME280;11335;43.848;25.958;2022-08-06T06:53:58;100747.94;;;29.96;100.00
22335;BME280;11335;43.848;25.958;2022-08-06T06:56:46;100745.88;;;30.08;100.00
22335;BME280;11335;43.848;25.958;2022-08-06T06:59:36;100760.28;;;30.35;98.21
22335;BME280;11335;43.848;25.958;2022-08-06T07:02:24;100758.34;;;30.72;99.35
22335;BME280;11335;43.848;25.958;2022-08-06T07:05:11;100755.34;;;31.18;95.88
22335;BME280;11335;43.848;25.958;2022-08-06T07:07:59;100770.22;;;31.14;97.57
22335;BME280;11335;43.848;25.958;2022-08-06T07:10:46;100767.56;;;31.22;98.47
22335;BME280;11335;43.848;25.958;2022-08-06T07:13:35;100763.66;;;31.60;96.92
22335;BME280;11335;43.848;25.958;2022-08-06T07:16:23;100766.88;;;31.89;92.93
22335;BME280;11335;43.848;25.958;2022-08-06T07:19:09;100767.66;;;32.07;93.00
22335;BME280;11335;43.848;25.958;2022-08-06T07:21:56;100761.41;;;31.56;92.59
22335;BME280;11335;43.848;25.958;2022-08-06T07:24:43;100762.75;;;31.77;86.29
22335;BME280;11335;43.848;25.958;2022-08-06T07:27:33;100770.22;;;30.97;87.90
22335;BME280;11335;43.848;25.958;2022-08-06T07:30:20;100762.50;;;30.40;90.19
22335;BME280;11335;43.848;25.958;2022-08-06T07:33:06;100765.25;;;30.30;91.63
22335;BME280;11335;43.848;25.958;2022-08-06T07:35:54;100765.06;;;30.14;93.53
22335;BME280;11335;43.848;25.958;2022-08-06T07:38:42;100761.72;;;30.74;92.90
22335;BME280;11335;43.848;25.958;2022-08-06T07:41:30;100760.03;;;31.08;89.50
22335;BME280;11335;43.848;25.958;2022-08-06T07:44:21;100762.00;;;31.42;85.47
22335;BME280;11335;43.848;25.958;2022-08-06T07:47:08;100760.19;;;31.50;85.43
22335;BME280;11335;43.848;25.958;2022-08-06T07:49:56;100760.41;;;31.82;83.07
22335;BME280;11335;43.848;25.958;2022-08-06T07:52:43;100756.63;;;32.09;80.83
22335;BME280;11335;43.848;25.958;2022-08-06T07:55:30;100746.81;;;32.08;78.66
22335;BME280;11335;43.848;25.958;2022-08-06T07:58:17;100748.72;;;32.73;78.42
22335;BME280;11335;43.848;25.958;2022-08-06T08:01:05;100749.91;;;32.78;80.75
22335;BME280;11335;43.848;25.958;2022-08-06T08:03:51;100751.84;;;32.86;82.55
22335;BME280;11335;43.848;25.958;2022-08-06T08:06:59;100744.84;;;32.67;82.26
22335;BME280;11335;43.848;25.958;2022-08-06T08:09:46;100740.94;;;32.70;78.81
22335;BME280;11335;43.848;25.958;2022-08-06T08:12:33;100748.25;;;32.93;74.27
22335;BME280;11335;43.848;25.958;2022-08-06T08:15:21;100747.03;;;32.80;72.93
22335;BME280;11335;43.848;25.958;2022-08-06T08:18:07;100750.81;;;33.19;74.62
22335;BME280;11335;43.848;25.958;2022-08-06T08:20:55;100748.09;;;33.27;69.71
22335;BME280;11335;43.848;25.958;2022-08-06T08:23:43;100758.41;;;32.67;70.36
22335;BME280;11335;43.848;25.958;2022-08-06T08:26:29;100751.16;;;33.40;69.47
22335;BME280;11335;43.848;25.958;2022-08-06T08:29:15;100762.28;;;33.77;66.22
22335;BME280;11335;43.848;25.958;2022-08-06T08:32:01;100759.41;;;33.70;66.37
22335;BME280;11335;43.848;25.958;2022-08-06T08:34:47;100751.34;;;34.47;62.01
22335;BME280;11335;43.848;25.958;2022-08-06T08:37:33;100755.94;;;35.00;59.43
22335;BME280;11335;43.848;25.958;2022-08-06T08:40:19;100746.00;;;34.54;58.98
22335;BME280;11335;43.848;25.958;2022-08-06T08:43:07;100751.16;;;34.49;58.94
22335;BME280;11335;43.848;25.958;2022-08-06T08:45:53;100747.75;;;34.08;60.64
22335;BME280;11335;43.848;25.958;2022-08-06T08:48:40;100752.47;;;34.83;59.12
22335;BME280;11335;43.848;25.958;2022-08-06T08:51:28;100757.56;;;35.09;55.88
22335;BME280;11335;43.848;25.958;2022-08-06T08:54:17;100754.16;;;35.30;53.92
22335;BME280;11335;43.848;25.958;2022-08-06T08:57:04;100756.63;;;34.71;54.61
22335;BME280;11335;43.848;25.958;2022-08-06T08:59:50;100743.16;;;34.47;55.28
22335;BME280;11335;43.848;25.958;2022-08-06T09:02:37;100746.88;;;34.77;55.37
22335;BME280;11335;43.848;25.958;2022-08-06T09:05:24;100742.28;;;34.55;55.35
22335;BME280;11335;43.848;25.958;2022-08-06T09:08:10;100745.63;;;34.34;53.20
22335;BME280;11335;43.848;25.958;2022-08-06T09:10:57;100745.16;;;34.23;55.49
22335;BME280;11335;43.848;25.958;2022-08-06T09:13:43;100739.56;;;34.77;54.03
22335;BME280;11335;43.848;25.958;2022-08-06T09:16:31;100740.19;;;34.87;52.90
22335;BME280;11335;43.848;25.958;2022-08-06T09:19:17;100738.56;;;35.01;51.83
22335;BME280;11335;43.848;25.958;2022-08-06T09:22:03;100732.66;;;35.35;50.40
22335;BME280;11335;43.848;25.958;2022-08-06T09:24:49;100746.84;;;35.07;50.48
22335;BME280;11335;43.848;25.958;2022-08-06T09:27:35;100738.06;;;34.06;53.65
22335;BME280;11335;43.848;25.958;2022-08-06T09:30:21;100734.09;;;34.16;55.66
22335;BME280;11335;43.848;25.958;2022-08-06T09:33:11;100748.72;;;34.84;54.42
22335;BME280;11335;43.848;25.958;2022-08-06T09:36:03;100723.84;;;35.10;53.49
22335;BME280;11335;43.848;25.958;2022-08-06T09:41:47;100734.75;;;34.34;54.42
22335;BME280;11335;43.848;25.958;2022-08-06T09:44:34;100724.38;;;33.91;57.26
22335;BME280;11335;43.848;25.958;2022-08-06T09:47:20;100727.56;;;34.03;56.67
22335;BME280;11335;43.848;25.958;2022-08-06T09:50:06;100736.19;;;33.60;58.04
22335;BME280;11335;43.848;25.958;2022-08-06T09:53:02;100722.78;;;33.26;60.96
22335;BME280;11335;43.848;25.958;2022-08-06T09:55:49;100724.00;;;34.02;58.44
22335;BME280;11335;43.848;25.958;2022-08-06T09:58:36;100717.38;;;33.97;59.64
22335;BME280;11335;43.848;25.958;2022-08-06T10:01:23;100722.47;;;34.38;56.09
22335;BME280;11335;43.848;25.958;2022-08-06T10:04:31;100717.06;;;34.30;57.55
22335;BME280;11335;43.848;25.958;2022-08-06T10:07:28;100705.19;;;33.85;58.39
22335;BME280;11335;43.848;25.958;2022-08-06T10:10:15;100708.41;;;34.27;57.54
22335;BME280;11335;43.848;25.958;2022-08-06T10:13:31;100709.84;;;34.45;56.27
22335;BME280;11335;43.848;25.958;2022-08-06T10:16:21;100710.19;;;34.95;55.17
22335;BME280;11335;43.848;25.958;2022-08-06T10:19:16;100712.03;;;35.17;53.60
22335;BME280;11335;43.848;25.958;2022-08-06T10:22:13;100706.84;;;35.08;53.61
22335;BME280;11335;43.848;25.958;2022-08-06T10:25:03;100703.09;;;34.86;54.39
22335;BME280;11335;43.848;25.958;2022-08-06T10:27:53;100704.59;;;35.11;54.39
22335;BME280;11335;43.848;25.958;2022-08-06T10:30:39;100687.81;;;34.32;54.39
22335;BME280;11335;43.848;25.958;2022-08-06T10:33:28;100686.09;;;34.01;56.74
22335;BME280;11335;43.848;25.958;2022-08-06T10:36:21;100688.91;;;34.68;56.11
22335;BME280;11335;43.848;25.958;2022-08-06T10:39:07;100691.69;;;35.28;52.91
22335;BME280;11335;43.848;25.958;2022-08-06T10:41:54;100688.03;;;35.50;51.15
22335;BME280;11335;43.848;25.958;2022-08-06T10:44:41;100689.19;;;35.18;51.46
22335;BME280;11335;43.848;25.958;2022-08-06T10:47:28;100687.56;;;34.64;50.90
22335;BME280;11335;43.848;25.958;2022-08-06T10:50:14;100677.88;;;35.44;50.72
22335;BME280;11335;43.848;25.958;2022-08-06T10:53:01;100679.97;;;35.05;50.09
22335;BME280;11335;43.848;25.958;2022-08-06T10:55:47;100674.63;;;35.26;48.58
22335;BME280;11335;43.848;25.958;2022-08-06T10:58:34;100673.09;;;35.46;48.90
22335;BME280;11335;43.848;25.958;2022-08-06T11:01:42;100675.63;;;35.48;49.65
22335;BME280;11335;43.848;25.958;2022-08-06T11:04:45;100671.22;;;35.61;49.03
22335;BME280;11335;43.848;25.958;2022-08-06T11:08:04;100682.88;;;35.18;48.88
22335;BME280;11335;43.848;25.958;2022-08-06T11:11:12;100673.59;;;35.27;48.71
22335;BME280;11335;43.848;25.958;2022-08-06T11:14:08;100672.22;;;35.31;47.58
22335;BME280;11335;43.848;25.958;2022-08-06T11:16:59;100661.06;;;35.84;46.36
22335;BME280;11335;43.848;25.958;2022-08-06T11:19:47;100657.56;;;36.82;45.05
22335;BME280;11335;43.848;25.958;2022-08-06T11:22:41;100668.88;;;36.79;43.81
22335;BME280;11335;43.848;25.958;2022-08-06T11:34:19;100664.78;;;36.27;44.17
22335;BME280;11335;43.848;25.958;2022-08-06T11:37:05;100656.41;;;36.49;43.85
22335;BME280;11335;43.848;25.958;2022-08-06T11:40:20;100659.16;;;35.70;44.94
22335;BME280;11335;43.848;25.958;2022-08-06T11:43:05;100657.00;;;35.51;44.81
22335;BME280;11335;43.848;25.958;2022-08-06T11:51:58;100649.91;;;36.00;44.22
22335;BME280;11335;43.848;25.958;2022-08-06T11:57:31;100659.56;;;34.78;45.99
22335;BME280;11335;43.848;25.958;2022-08-06T12:00:20;100648.00;;;34.99;46.80
22335;BME280;11335;43.848;25.958;2022-08-06T12:03:06;100639.25;;;34.89;46.50
22335;BME280;11335;43.848;25.958;2022-08-06T12:05:52;100636.28;;;34.76;47.36
22335;BME280;11335;43.848;25.958;2022-08-06T12:08:38;100636.72;;;34.65;47.68
22335;BME280;11335;43.848;25.958;2022-08-06T12:11:26;100642.25;;;35.31;46.98
22335;BME280;11335;43.848;25.958;2022-08-06T12:14:38;100638.72;;;34.18;49.09
22335;BME280;11335;43.848;25.958;2022-08-06T12:17:27;100635.47;;;34.22;49.55
22335;BME280;11335;43.848;25.958;2022-08-06T12:20:13;100631.31;;;34.12;49.87
22335;BME280;11335;43.848;25.958;2022-08-06T12:23:00;100625.09;;;33.95;51.49
22335;BME280;11335;43.848;25.958;2022-08-06T12:25:47;100626.13;;;34.70;50.26
22335;BME280;11335;43.848;25.958;2022-08-06T12:28:34;100621.75;;;35.35;48.15
22335;BME280;11335;43.848;25.958;2022-08-06T12:31:31;100611.31;;;35.68;45.70
22335;BME280;11335;43.848;25.958;2022-08-06T12:34:27;100623.13;;;36.67;45.20
22335;BME280;11335;43.848;25.958;2022-08-06T12:37:14;100616.88;;;36.45;43.12
22335;BME280;11335;43.848;25.958;2022-08-06T12:40:02;100616.59;;;35.55;44.38
22335;BME280;11335;43.848;25.958;2022-08-06T12:43:10;100609.63;;;36.17;43.21
22335;BME280;11335;43.848;25.958;2022-08-06T12:45:57;100611.03;;;36.13;42.63
22335;BME280;11335;43.848;25.958;2022-08-06T12:48:48;100608.91;;;35.29;43.63
22335;BME280;11335;43.848;25.958;2022-08-06T12:51:35;100605.34;;;34.91;46.51
22335;BME280;11335;43.848;25.958;2022-08-06T12:54:28;100598.59;;;35.02;45.83
22335;BME280;11335;43.848;25.958;2022-08-06T12:57:25;100601.59;;;35.07;46.71
22335;BME280;11335;43.848;25.958;2022-08-06T13:00:12;100597.22;;;35.35;45.21
22335;BME280;11335;43.848;25.958;2022-08-06T13:02:58;100601.66;;;35.22;46.14
22335;BME280;11335;43.848;25.958;2022-08-06T13:05:45;100599.84;;;35.72;44.51
22335;BME280;11335;43.848;25.958;2022-08-06T13:08:30;100598.91;;;35.22;45.26
22335;BME280;11335;43.848;25.958;2022-08-06T13:11:16;100599.63;;;34.19;47.99
22335;BME280;11335;43.848;25.958;2022-08-06T13:14:11;100603.66;;;34.31;47.40
22335;BME280;11335;43.848;25.958;2022-08-06T13:17:11;100597.63;;;34.80;47.36
22335;BME280;11335;43.848;25.958;2022-08-06T13:19:57;100595.56;;;34.45;47.48
22335;BME280;11335;43.848;25.958;2022-08-06T13:22:50;100598.72;;;34.04;48.93
22335;BME280;11335;43.848;25.958;2022-08-06T13:25:48;100606.19;;;34.32;48.71
22335;BME280;11335;43.848;25.958;2022-08-06T13:28:36;100590.34;;;35.24;46.69
22335;BME280;11335;43.848;25.958;2022-08-06T13:31:21;100586.59;;;35.11;46.26
22335;BME280;11335;43.848;25.958;2022-08-06T13:34:13;100592.03;;;35.69;44.85
22335;BME280;11335;43.848;25.958;2022-08-06T13:36:59;100586.97;;;35.22;45.48
22335;BME280;11335;43.848;25.958;2022-08-06T13:39:50;100586.88;;;35.16;44.61
22335;BME280;11335;43.848;25.958;2022-08-06T13:42:54;100593.34;;;35.00;45.36
22335;BME280;11335;43.848;25.958;2022-08-06T13:45:40;100583.34;;;34.78;45.71
22335;BME280;11335;43.848;25.958;2022-08-06T13:48:26;100590.06;;;35.19;46.02
22335;BME280;11335;43.848;25.958;2022-08-06T13:51:13;100574.00;;;35.10;45.33
22335;BME280;11335;43.848;25.958;2022-08-06T13:53:59;100588.16;;;34.91;46.88
22335;BME280;11335;43.848;25.958;2022-08-06T13:56:46;100581.09;;;34.82;47.25
22335;BME280;11335;43.848;25.958;2022-08-06T13:59:32;100583.72;;;33.85;48.69
22335;BME280;11335;43.848;25.958;2022-08-06T14:02:21;100579.38;;;33.99;48.95
22335;BME280;11335;43.848;25.958;2022-08-06T14:05:07;100576.59;;;33.84;49.11
22335;BME280;11335;43.848;25.958;2022-08-06T14:07:52;100588.78;;;33.88;49.35
22335;BME280;11335;43.848;25.958;2022-08-06T14:10:39;100588.72;;;33.96;48.24
22335;BME280;11335;43.848;25.958;2022-08-06T14:13:25;100581.84;;;34.08;48.19
22335;BME280;11335;43.848;25.958;2022-08-06T14:16:11;100589.28;;;33.92;49.76
22335;BME280;11335;43.848;25.958;2022-08-06T14:18:56;100589.56;;;33.97;49.88
22335;BME280;11335;43.848;25.958;2022-08-06T14:21:42;100590.38;;;34.28;49.55
22335;BME280;11335;43.848;25.958;2022-08-06T14:24:28;100584.72;;;34.15;49.03
22335;BME280;11335;43.848;25.958;2022-08-06T14:27:14;100577.38;;;33.93;49.88
22335;BME280;11335;43.848;25.958;2022-08-06T14:29:59;100585.06;;;34.57;48.47
22335;BME280;11335;43.848;25.958;2022-08-06T14:32:46;100586.50;;;34.22;49.24
22335;BME280;11335;43.848;25.958;2022-08-06T14:35:32;100581.41;;;33.97;49.49
22335;BME280;11335;43.848;25.958;2022-08-06T14:38:21;100575.13;;;33.96;50.01
22335;BME280;11335;43.848;25.958;2022-08-06T14:41:06;100577.91;;;33.88;50.39
22335;BME280;11335;43.848;25.958;2022-08-06T14:44:11;100573.25;;;33.66;51.27
22335;BME280;11335;43.848;25.958;2022-08-06T14:47:15;100572.22;;;33.98;51.05
22335;BME280;11335;43.848;25.958;2022-08-06T14:50:02;100572.72;;;34.01;50.93
22335;BME280;11335;43.848;25.958;2022-08-06T14:52:48;100564.06;;;33.67;51.83
22335;BME280;11335;43.848;25.958;2022-08-06T14:55:34;100572.84;;;33.47;52.64
22335;BME280;11335;43.848;25.958;2022-08-06T14:58:20;100566.13;;;33.19;53.32
22335;BME280;11335;43.848;25.958;2022-08-06T15:01:06;100573.47;;;33.57;52.90
22335;BME280;11335;43.848;25.958;2022-08-06T15:03:52;100571.97;;;33.85;52.19
22335;BME280;11335;43.848;25.958;2022-08-06T15:06:38;100571.44;;;33.89;51.17
22335;BME280;11335;43.848;25.958;2022-08-06T15:09:24;100558.97;;;34.03;51.33
22335;BME280;11335;43.848;25.958;2022-08-06T15:12:10;100559.59;;;33.82;50.40
22335;BME280;11335;43.848;25.958;2022-08-06T15:14:55;100545.66;;;33.47;50.95
22335;BME280;11335;43.848;25.958;2022-08-06T15:17:41;100555.63;;;33.54;51.13